createdAt,value
2018-06-30T00:01:24.952Z,86.40
2018-06-30T00:03:53.941Z,86.50
2018-06-30T00:06:22.986Z,86.80
2018-06-30T00:08:51.979Z,87.70
2018-06-30T00:11:20.918Z,87.60
2018-06-30T00:13:49.871Z,88.90
2018-06-30T00:16:18.762Z,88.90
2018-06-30T00:18:47.741Z,87.90
2018-06-30T00:23:45.040Z,88.50
2018-06-30T00:26:13.999Z,88.40
2018-06-30T00:28:42.908Z,88.60
2018-06-30T00:31:11.818Z,89.50
2018-06-30T00:33:40.719Z,89.30
2018-06-30T00:36:09.874Z,89.50
2018-06-30T00:38:38.811Z,90.00
2018-06-30T00:41:07.656Z,90.20
2018-06-30T00:43:36.539Z,90.10
2018-06-30T00:46:05.461Z,90.40
2018-06-30T00:48:34.354Z,90.40
2018-06-30T00:51:03.453Z,90.50
2018-06-30T00:53:32.387Z,90.20
2018-06-30T00:56:01.263Z,90.10
2018-06-30T00:58:30.206Z,89.40
2018-06-30T01:00:59.111Z,90.00
2018-06-30T01:03:27.976Z,90.00
2018-06-30T01:05:56.897Z,90.00
2018-06-30T01:08:25.795Z,90.00
2018-06-30T01:10:54.663Z,90.00
2018-06-30T01:13:23.531Z,90.30
2018-06-30T01:15:52.452Z,90.50
2018-06-30T01:18:21.355Z,90.70
2018-06-30T01:20:50.234Z,90.80
2018-06-30T01:23:19.135Z,91.00
2018-06-30T01:28:16.591Z,91.30
2018-06-30T01:30:45.551Z,91.20
2018-06-30T01:33:14.431Z,91.00
2018-06-30T01:35:43.289Z,91.10
2018-06-30T01:38:12.206Z,91.00
2018-06-30T01:40:41.092Z,91.00
2018-06-30T01:43:09.939Z,91.00
2018-06-30T01:45:38.835Z,91.20
2018-06-30T01:48:07.788Z,91.10
2018-06-30T01:50:36.684Z,91.20
2018-06-30T01:53:05.585Z,91.50
2018-06-30T01:55:34.496Z,91.30
2018-06-30T01:58:03.438Z,91.30
2018-06-30T02:00:32.435Z,91.10
2018-06-30T02:03:01.589Z,91.00
2018-06-30T02:05:30.479Z,91.20
2018-06-30T02:07:59.488Z,91.30
2018-06-30T02:10:28.502Z,91.30
2018-06-30T02:12:57.416Z,91.30
2018-06-30T02:15:26.283Z,91.40
2018-06-30T02:17:55.131Z,91.60
2018-06-30T02:20:24.068Z,91.80
2018-06-30T02:22:53.229Z,91.80
2018-06-30T02:25:22.152Z,92.10
2018-06-30T02:27:51.079Z,92.40
2018-06-30T02:30:20.015Z,92.60
2018-06-30T02:35:17.431Z,93.10
2018-06-30T02:37:46.336Z,93.20
2018-06-30T02:40:15.272Z,93.10
2018-06-30T02:42:44.176Z,93.30
2018-06-30T02:45:13.248Z,93.20
2018-06-30T02:47:42.207Z,93.60
2018-06-30T02:50:11.163Z,93.30
2018-06-30T02:52:40.067Z,93.50
2018-06-30T02:55:09.023Z,93.50
2018-06-30T02:57:38.012Z,93.60
2018-06-30T03:00:06.930Z,93.70
2018-06-30T03:02:35.808Z,93.70
2018-06-30T03:05:04.806Z,93.70
2018-06-30T03:07:33.676Z,93.90
2018-06-30T03:10:02.651Z,93.90
2018-06-30T03:12:31.705Z,94.10
2018-06-30T03:15:00.724Z,94.20
2018-06-30T03:17:29.591Z,94.30
2018-06-30T03:19:58.511Z,94.30
2018-06-30T03:22:27.367Z,94.30
2018-06-30T03:24:56.272Z,94.20
2018-06-30T03:27:25.226Z,94.30
2018-06-30T03:29:54.158Z,94.10
2018-06-30T03:32:23.102Z,94.20
2018-06-30T03:34:52.036Z,93.80
2018-06-30T03:37:20.913Z,93.80
2018-06-30T03:39:49.944Z,93.80
2018-06-30T03:42:18.885Z,93.70
2018-06-30T03:44:47.783Z,93.80
2018-06-30T03:47:16.657Z,94.00
2018-06-30T03:49:45.551Z,94.00
2018-06-30T03:52:14.460Z,94.00
2018-06-30T03:54:43.347Z,94.10
2018-06-30T03:57:12.251Z,94.30
2018-06-30T03:59:41.241Z,94.20
2018-06-30T04:02:10.084Z,94.20
2018-06-30T04:04:38.991Z,94.10
2018-06-30T04:07:07.924Z,93.60
2018-06-30T04:09:36.836Z,93.40
2018-06-30T04:12:05.905Z,93.20
2018-06-30T04:14:34.773Z,92.80
2018-06-30T04:17:03.792Z,92.30
2018-06-30T04:22:01.145Z,91.80
2018-06-30T04:24:30.042Z,91.50
2018-06-30T04:26:59.002Z,91.50
2018-06-30T04:29:27.919Z,91.30
2018-06-30T04:31:56.828Z,91.00
2018-06-30T04:34:25.787Z,90.60
2018-06-30T04:36:54.680Z,90.20
2018-06-30T04:39:23.592Z,89.60
2018-06-30T04:41:52.506Z,88.50
2018-06-30T04:44:21.455Z,86.70
2018-06-30T04:46:50.331Z,84.60
2018-06-30T04:49:19.648Z,84.60
2018-06-30T04:54:17.116Z,84.30
2018-06-30T04:56:46.043Z,84.30
2018-06-30T04:59:14.928Z,83.80
2018-06-30T05:01:43.837Z,82.70
2018-06-30T05:04:12.691Z,83.00
2018-06-30T05:06:41.594Z,82.80
2018-06-30T05:09:10.558Z,82.70
2018-06-30T05:11:39.517Z,82.20
2018-06-30T05:14:08.419Z,82.40
2018-06-30T05:16:37.312Z,83.20
2018-06-30T05:19:06.239Z,84.20
2018-06-30T05:21:35.171Z,84.50
2018-06-30T05:24:04.063Z,85.50
2018-06-30T05:26:33.121Z,85.70
2018-06-30T05:29:02.100Z,86.50
2018-06-30T05:31:31.026Z,86.10
2018-06-30T05:33:59.963Z,86.40
2018-06-30T05:36:29.128Z,86.30
2018-06-30T05:41:26.603Z,85.30
2018-06-30T05:43:55.817Z,83.90
2018-06-30T05:46:24.792Z,83.80
2018-06-30T05:48:54.023Z,84.90
2018-06-30T05:51:23.020Z,85.30
2018-06-30T05:53:51.928Z,85.70
2018-06-30T05:56:20.835Z,85.40
2018-06-30T05:58:49.807Z,86.20
2018-06-30T06:01:18.788Z,86.50
2018-06-30T06:03:47.711Z,86.90
2018-06-30T06:06:16.611Z,87.10
2018-06-30T06:08:45.635Z,87.20
2018-06-30T06:11:14.527Z,87.10
2018-06-30T06:13:43.580Z,88.00
2018-06-30T06:16:12.459Z,88.20
2018-06-30T06:18:41.451Z,87.80
2018-06-30T06:21:10.430Z,86.90
2018-06-30T06:23:39.371Z,86.40
2018-06-30T06:26:08.453Z,85.10
2018-06-30T06:28:37.480Z,85.10
2018-06-30T06:31:06.520Z,85.70
2018-06-30T06:33:35.512Z,84.30
2018-06-30T06:36:04.549Z,84.80
2018-06-30T06:38:33.491Z,85.00
2018-06-30T06:41:02.598Z,84.60
2018-06-30T06:43:31.746Z,84.30
2018-06-30T06:46:00.616Z,85.40
2018-06-30T06:48:29.557Z,85.00
2018-06-30T06:50:58.489Z,84.30
2018-06-30T06:53:27.397Z,84.40
2018-06-30T06:55:56.339Z,84.20
2018-06-30T06:58:25.259Z,83.30
2018-06-30T07:00:54.315Z,84.50
2018-06-30T07:03:23.199Z,85.30
2018-06-30T07:08:20.732Z,85.40
2018-06-30T07:13:17.908Z,87.70
2018-06-30T07:15:46.843Z,88.20
2018-06-30T07:18:15.997Z,88.70
2018-06-30T07:20:44.851Z,89.40
2018-06-30T07:23:13.771Z,89.90
2018-06-30T07:25:42.762Z,89.80
2018-06-30T07:28:11.718Z,89.30
2018-06-30T07:30:40.724Z,90.00
2018-06-30T07:33:09.613Z,89.20
2018-06-30T07:35:38.511Z,88.80
2018-06-30T07:38:07.419Z,88.70
2018-06-30T07:40:36.294Z,89.10
2018-06-30T07:43:05.299Z,88.40
2018-06-30T07:45:34.168Z,88.10
2018-06-30T07:48:03.111Z,87.20
2018-06-30T07:50:32.014Z,87.80
2018-06-30T07:53:00.921Z,87.90
2018-06-30T07:55:29.765Z,87.90
2018-06-30T07:57:58.717Z,87.70
2018-06-30T08:00:27.755Z,88.30
2018-06-30T08:02:56.680Z,86.60
2018-06-30T08:05:25.640Z,87.40
2018-06-30T08:07:54.498Z,86.10
2018-06-30T08:10:23.391Z,86.00
2018-06-30T08:12:52.368Z,86.10
2018-06-30T08:15:21.261Z,86.10
2018-06-30T08:17:50.263Z,85.40
2018-06-30T08:20:19.184Z,85.90
2018-06-30T08:22:48.149Z,85.60
2018-06-30T08:25:17.160Z,85.20
2018-06-30T08:27:46.235Z,84.80
2018-06-30T08:30:15.151Z,84.60
2018-06-30T08:32:44.211Z,84.40
2018-06-30T08:35:13.116Z,83.70
2018-06-30T08:37:42.165Z,84.40
2018-06-30T08:40:11.100Z,84.50
2018-06-30T08:42:39.947Z,82.90
2018-06-30T08:45:08.908Z,83.50
2018-06-30T08:47:37.834Z,81.90
2018-06-30T08:50:06.735Z,82.60
2018-06-30T08:52:35.621Z,82.20
2018-06-30T08:55:04.615Z,82.80
2018-06-30T08:57:33.533Z,82.00
2018-06-30T09:00:03.408Z,85.10
2018-06-30T09:02:32.396Z,83.10
2018-06-30T09:05:01.264Z,83.20
2018-06-30T09:07:30.199Z,82.20
2018-06-30T09:09:59.135Z,81.80
2018-06-30T09:12:28.033Z,81.80
2018-06-30T09:14:57.010Z,82.60
2018-06-30T09:17:25.904Z,82.50
2018-06-30T09:19:54.779Z,82.20
2018-06-30T09:22:23.661Z,81.90
2018-06-30T09:24:52.621Z,79.50
2018-06-30T09:27:21.728Z,80.10
2018-06-30T09:29:50.740Z,80.80
2018-06-30T09:32:19.626Z,80.20
2018-06-30T09:34:48.499Z,78.90
2018-06-30T09:37:17.651Z,79.20
2018-06-30T09:39:46.529Z,79.00
2018-06-30T09:42:15.568Z,78.50
2018-06-30T09:44:44.576Z,78.20
2018-06-30T09:47:13.532Z,78.10
2018-06-30T09:49:42.403Z,76.60
2018-06-30T09:52:11.369Z,76.10
2018-06-30T09:54:40.272Z,75.30
2018-06-30T09:57:09.228Z,75.60
2018-06-30T09:59:38.102Z,76.60
2018-06-30T10:02:07.307Z,76.40
2018-06-30T10:04:36.259Z,76.00
2018-06-30T10:07:05.712Z,76.50
2018-06-30T10:09:34.593Z,72.30
2018-06-30T10:12:03.664Z,74.30
2018-06-30T10:14:32.687Z,74.60
2018-06-30T10:17:01.600Z,73.80
2018-06-30T10:19:30.544Z,74.20
2018-06-30T10:21:59.362Z,74.00
2018-06-30T10:24:28.248Z,73.90
2018-06-30T10:26:57.197Z,73.20
2018-06-30T10:29:26.083Z,72.70
2018-06-30T10:31:55.107Z,72.20
2018-06-30T10:34:24.010Z,73.60
2018-06-30T10:36:52.930Z,73.90
2018-06-30T10:39:21.813Z,72.70
2018-06-30T10:41:50.810Z,72.00
2018-06-30T10:44:19.748Z,72.00
2018-06-30T10:46:48.647Z,71.60
2018-06-30T10:49:17.559Z,71.50
2018-06-30T10:51:46.518Z,72.10
2018-06-30T10:54:15.388Z,70.90
2018-06-30T10:56:44.265Z,70.70
2018-06-30T10:59:13.130Z,70.80
2018-06-30T11:01:42.239Z,71.20
2018-06-30T11:04:11.221Z,71.80
2018-06-30T11:06:40.235Z,70.20
2018-06-30T11:09:09.255Z,70.30
2018-06-30T11:14:06.795Z,71.40
2018-06-30T11:16:35.743Z,71.00
2018-06-30T11:19:04.641Z,69.40
2018-06-30T11:21:33.551Z,69.80
2018-06-30T11:24:02.779Z,69.80
2018-06-30T11:26:31.684Z,71.70
2018-06-30T11:29:00.592Z,70.30
2018-06-30T11:31:29.515Z,70.30
2018-06-30T11:33:58.411Z,69.20
2018-06-30T11:36:27.281Z,68.90
2018-06-30T11:38:56.231Z,69.30
2018-06-30T11:41:25.302Z,68.50
2018-06-30T11:43:54.204Z,68.10
2018-06-30T11:46:23.105Z,68.30
2018-06-30T11:48:52.040Z,67.20
2018-06-30T11:51:20.922Z,67.40
2018-06-30T11:53:50.029Z,68.90
2018-06-30T11:56:18.888Z,69.80
2018-06-30T11:58:47.815Z,68.10
2018-06-30T12:01:16.718Z,67.80
2018-06-30T12:03:45.675Z,67.00
2018-06-30T12:06:14.599Z,66.30
2018-06-30T12:08:43.522Z,66.80
2018-06-30T12:11:12.562Z,67.00
2018-06-30T12:13:41.537Z,66.00
2018-06-30T12:16:10.541Z,65.90
2018-06-30T12:18:39.783Z,65.90
2018-06-30T12:21:08.751Z,65.80
2018-06-30T12:23:37.775Z,66.40
2018-06-30T12:26:06.791Z,65.40
2018-06-30T12:28:35.808Z,63.70
2018-06-30T12:31:04.709Z,64.30
2018-06-30T12:33:33.682Z,63.70
2018-06-30T12:36:02.644Z,63.30
2018-06-30T12:38:31.653Z,61.70
2018-06-30T12:41:00.544Z,63.10
2018-06-30T12:43:29.503Z,61.80
2018-06-30T12:45:58.386Z,61.50
2018-06-30T12:48:27.405Z,61.30
2018-06-30T12:50:56.395Z,60.60
2018-06-30T12:53:25.324Z,60.80
2018-06-30T12:55:54.353Z,60.30
2018-06-30T12:58:23.268Z,59.10
2018-06-30T13:00:52.148Z,59.40
2018-06-30T13:03:21.133Z,60.30
2018-06-30T13:05:50.041Z,59.80
2018-06-30T13:08:19.038Z,58.70
2018-06-30T13:10:48.057Z,58.40
2018-06-30T13:13:17.305Z,56.40
2018-06-30T13:15:46.455Z,56.90
2018-06-30T13:18:15.316Z,57.50
2018-06-30T13:20:44.285Z,56.30
2018-06-30T13:23:13.244Z,56.60
2018-06-30T13:25:42.121Z,55.30
2018-06-30T13:28:11.088Z,55.80
2018-06-30T13:30:40.067Z,54.80
2018-06-30T13:33:09.021Z,54.50
2018-06-30T13:35:37.971Z,54.00
2018-06-30T13:38:06.869Z,55.10
2018-06-30T13:40:35.796Z,54.30
2018-06-30T13:43:05.223Z,53.90
2018-06-30T13:45:34.123Z,54.90
2018-06-30T13:50:50.653Z,52.90
2018-06-30T13:53:19.914Z,54.00
2018-06-30T13:55:48.792Z,55.30
2018-06-30T13:58:17.773Z,54.30
2018-06-30T14:00:46.802Z,54.60
2018-06-30T14:03:15.663Z,55.50
2018-06-30T14:05:44.611Z,54.60
2018-06-30T14:08:13.492Z,54.50
2018-06-30T14:10:42.419Z,54.20
2018-06-30T14:13:11.424Z,52.70
2018-06-30T14:15:40.477Z,52.60
2018-06-30T14:18:09.393Z,53.00
2018-06-30T14:20:38.303Z,53.50
2018-06-30T14:23:07.411Z,53.20
2018-06-30T14:25:36.405Z,53.50
2018-06-30T14:28:06.146Z,54.30
2018-06-30T14:30:35.025Z,54.20
2018-06-30T14:33:04.060Z,54.10
2018-06-30T14:35:33.116Z,53.80
2018-06-30T14:38:02.604Z,53.00
2018-06-30T14:40:31.659Z,54.60
2018-06-30T14:43:00.609Z,53.60
2018-06-30T14:45:29.496Z,54.10
2018-06-30T14:47:58.449Z,53.80
2018-06-30T14:50:27.339Z,54.30
2018-06-30T14:52:56.264Z,53.90
2018-06-30T14:55:25.375Z,53.50
2018-06-30T15:00:22.962Z,53.70
2018-06-30T15:02:52.498Z,53.40
2018-06-30T15:05:21.360Z,54.10
2018-06-30T15:07:50.345Z,52.60
2018-06-30T15:10:19.332Z,52.10
2018-06-30T15:12:48.434Z,52.20
2018-06-30T15:15:17.289Z,51.60
2018-06-30T15:17:46.283Z,52.00
2018-06-30T15:20:15.204Z,51.90
2018-06-30T15:22:44.219Z,51.00
2018-06-30T15:25:13.215Z,51.70
2018-06-30T15:27:42.112Z,51.60
2018-06-30T15:30:11.091Z,51.90
2018-06-30T15:32:40.745Z,52.00
2018-06-30T15:37:38.420Z,51.40
2018-06-30T15:40:08.572Z,51.60
2018-06-30T15:42:37.510Z,51.50
2018-06-30T15:45:07.231Z,51.80
2018-06-30T15:47:36.230Z,51.20
2018-06-30T15:50:05.369Z,50.60
2018-06-30T15:52:34.336Z,50.90
2018-06-30T15:55:03.696Z,51.30
2018-06-30T15:57:32.647Z,51.40
2018-06-30T16:00:01.589Z,51.50
2018-06-30T16:02:30.504Z,51.40
2018-06-30T16:04:59.485Z,50.40
2018-06-30T16:07:28.584Z,49.50
2018-06-30T16:09:57.505Z,49.90
2018-06-30T16:12:26.368Z,49.60
2018-06-30T16:14:55.243Z,49.30
2018-06-30T16:17:24.404Z,49.80
2018-06-30T16:19:53.599Z,49.40
2018-06-30T16:22:22.564Z,48.90
2018-06-30T16:24:51.534Z,48.80
2018-06-30T16:27:20.403Z,49.00
2018-06-30T16:29:49.481Z,48.80
2018-06-30T16:32:18.643Z,48.10
2018-06-30T16:34:47.526Z,47.70
2018-06-30T16:37:16.424Z,47.80
2018-06-30T16:39:45.403Z,48.30
2018-06-30T16:42:14.365Z,47.40
2018-06-30T16:44:43.362Z,46.50
2018-06-30T16:47:12.284Z,46.90
2018-06-30T16:49:41.232Z,47.10
2018-06-30T16:52:10.218Z,47.10
2018-06-30T16:54:39.200Z,47.40
2018-06-30T16:57:08.144Z,47.00
2018-06-30T17:02:05.830Z,46.80
2018-06-30T17:04:34.783Z,47.30
2018-06-30T17:07:03.656Z,46.20
2018-06-30T17:09:32.587Z,46.20
2018-06-30T17:12:01.685Z,46.30
2018-06-30T17:14:30.612Z,46.50
2018-06-30T17:16:59.543Z,48.00
2018-06-30T17:19:28.464Z,47.60
2018-06-30T17:21:57.604Z,46.70
2018-06-30T17:24:26.803Z,46.20
2018-06-30T17:26:55.827Z,46.10
2018-06-30T17:29:24.826Z,45.80
2018-06-30T17:31:53.769Z,45.40
2018-06-30T17:34:22.761Z,45.30
2018-06-30T17:36:52.271Z,45.40
2018-06-30T17:39:21.605Z,45.50
2018-06-30T17:41:50.583Z,45.00
2018-06-30T17:44:19.960Z,45.60
2018-06-30T17:46:48.897Z,44.80
2018-06-30T17:49:17.870Z,44.60
2018-06-30T17:51:46.913Z,44.60
2018-06-30T17:54:15.797Z,44.30
2018-06-30T17:56:44.735Z,44.80
2018-06-30T17:59:13.842Z,44.10
2018-06-30T18:01:43.040Z,44.20
2018-06-30T18:04:12.127Z,44.10
2018-06-30T18:06:41.226Z,44.20
2018-06-30T18:09:10.457Z,43.70
2018-06-30T18:11:39.980Z,43.70
2018-06-30T18:14:09.155Z,43.90
2018-06-30T18:16:38.239Z,44.30
2018-06-30T18:19:07.156Z,43.70
2018-06-30T18:21:36.067Z,44.10
2018-06-30T18:24:05.132Z,43.20
2018-06-30T18:26:34.357Z,43.40
2018-06-30T18:29:03.903Z,43.70
2018-06-30T18:31:33.228Z,44.10
2018-06-30T18:34:02.163Z,44.80
2018-06-30T18:36:31.396Z,44.30
2018-06-30T18:39:00.337Z,43.70
2018-06-30T18:41:29.316Z,44.20
2018-06-30T18:43:58.323Z,44.10
2018-06-30T18:46:27.303Z,44.30
2018-06-30T18:48:56.415Z,45.20
2018-06-30T18:51:25.437Z,44.60
2018-06-30T18:53:54.533Z,44.80
2018-06-30T18:56:23.483Z,44.00
2018-06-30T18:58:52.544Z,44.30
2018-06-30T19:01:21.684Z,44.70
2018-06-30T19:03:50.746Z,44.90
2018-06-30T19:06:19.684Z,44.70
2018-06-30T19:08:49.295Z,45.00
2018-06-30T19:11:18.231Z,45.30
2018-06-30T19:13:47.189Z,45.00
2018-06-30T19:16:16.185Z,45.10
2018-06-30T19:18:45.269Z,45.70
2018-06-30T19:21:14.327Z,45.40
2018-06-30T19:23:43.323Z,47.00
2018-06-30T19:26:12.396Z,45.50
2018-06-30T19:28:41.631Z,45.40
2018-06-30T19:31:10.626Z,46.10
2018-06-30T19:36:08.316Z,46.10
2018-06-30T19:38:37.299Z,46.30
2018-06-30T19:41:06.381Z,47.20
2018-06-30T19:43:35.500Z,46.80
2018-06-30T19:46:04.496Z,48.40
2018-06-30T19:48:33.404Z,48.20
2018-06-30T19:51:03.309Z,46.80
2018-06-30T19:53:32.207Z,47.00
2018-06-30T19:56:01.183Z,47.20
2018-06-30T19:58:30.350Z,47.00
2018-06-30T20:00:59.291Z,47.00
2018-06-30T20:03:28.179Z,47.40
2018-06-30T20:05:57.457Z,47.30
2018-06-30T20:08:26.466Z,47.40
2018-06-30T20:10:55.265Z,47.80
2018-06-30T20:13:24.156Z,47.80
2018-06-30T20:15:53.165Z,47.90
2018-06-30T20:18:22.184Z,48.60
2018-06-30T20:20:51.127Z,47.90
2018-06-30T20:23:20.117Z,48.00
2018-06-30T20:25:49.672Z,48.30
2018-06-30T20:28:18.707Z,49.30
2018-06-30T20:33:16.139Z,49.10
2018-06-30T20:38:14.120Z,48.80
2018-06-30T20:40:43.028Z,49.50
2018-06-30T20:43:12.656Z,49.60
2018-06-30T20:45:42.060Z,49.80
2018-06-30T20:48:11.395Z,49.80
2018-06-30T20:50:40.467Z,49.80
2018-06-30T20:53:09.770Z,50.10
2018-06-30T20:55:39.064Z,50.30
2018-06-30T20:58:08.022Z,50.60
2018-06-30T21:00:36.973Z,50.20
2018-06-30T21:03:06.101Z,51.10
2018-06-30T21:05:35.226Z,50.90
2018-06-30T21:08:04.347Z,50.70
2018-06-30T21:10:33.399Z,52.20
2018-06-30T21:13:02.365Z,51.70
2018-06-30T21:15:31.385Z,50.70
2018-06-30T21:18:00.548Z,51.10
2018-06-30T21:20:29.453Z,51.30
2018-06-30T21:22:58.376Z,51.70
2018-06-30T21:25:27.444Z,52.30
2018-06-30T21:27:56.503Z,53.60
2018-06-30T21:30:25.516Z,50.80
2018-06-30T21:32:54.576Z,51.10
2018-06-30T21:35:23.531Z,52.20
2018-06-30T21:37:52.472Z,51.40
2018-06-30T21:40:22.427Z,53.10
2018-06-30T21:42:51.363Z,53.10
2018-06-30T21:45:20.263Z,52.60
2018-06-30T21:47:49.207Z,52.10
2018-06-30T21:50:18.106Z,54.20
2018-06-30T21:52:47.045Z,52.70
2018-06-30T21:55:16.039Z,55.20
2018-06-30T21:57:44.971Z,54.20
2018-06-30T22:00:14.901Z,54.40
2018-06-30T22:02:43.948Z,54.30
2018-06-30T22:05:12.872Z,53.30
2018-06-30T22:07:41.929Z,53.50
2018-06-30T22:10:11.056Z,55.90
2018-06-30T22:12:40.053Z,55.50
2018-06-30T22:15:09.026Z,56.30
2018-06-30T22:17:37.990Z,56.00
2018-06-30T22:20:06.947Z,55.60
2018-06-30T22:22:35.856Z,57.60
2018-06-30T22:25:04.899Z,56.20
2018-06-30T22:27:33.831Z,57.30
2018-06-30T22:30:02.880Z,55.20
2018-06-30T22:35:00.172Z,56.60
2018-06-30T22:37:29.081Z,54.50
2018-06-30T22:40:09.465Z,57.80
2018-06-30T22:42:38.456Z,57.60
2018-06-30T22:45:07.702Z,57.80
2018-06-30T22:47:36.688Z,59.40
2018-06-30T22:50:05.690Z,62.60
2018-06-30T22:52:34.654Z,59.10
2018-06-30T22:55:03.572Z,59.00
2018-06-30T22:57:32.603Z,57.40
2018-06-30T23:00:01.528Z,56.70
2018-06-30T23:02:30.420Z,58.60
2018-06-30T23:04:59.484Z,58.00
2018-06-30T23:07:28.568Z,57.60
2018-06-30T23:09:57.674Z,57.00
2018-06-30T23:12:26.572Z,58.10
2018-06-30T23:14:55.458Z,58.00
2018-06-30T23:17:24.335Z,57.80
2018-06-30T23:19:53.228Z,56.90
2018-06-30T23:22:32.139Z,56.80
2018-06-30T23:25:01.083Z,59.00
2018-06-30T23:27:30.017Z,59.40
2018-06-30T23:29:58.983Z,59.90
2018-06-30T23:32:28.071Z,57.00
2018-06-30T23:34:57.064Z,58.40
2018-06-30T23:37:25.980Z,56.40
2018-06-30T23:39:54.880Z,57.80
2018-06-30T23:42:24.082Z,59.50
2018-06-30T23:44:53.022Z,59.60
2018-06-30T23:47:21.900Z,58.80
2018-06-30T23:49:50.776Z,58.20
2018-06-30T23:52:19.645Z,59.80
2018-06-30T23:54:48.565Z,58.50
2018-06-30T23:57:17.463Z,58.30
2018-06-30T23:59:46.388Z,60.00
